Reynoldsburg, Ohio
Current Conditions -  °F | °C
As of 9:51 PM on Monday 22 Dec 2014 (Local Time) from KCMH Reporting Station
Overcast Overcast  
Wind Chill: 42°   Ceiling: 15000
Heat Index: 46°   Visibility: 10mi
Dew Point: 35°   Wind: 8mph
Humidity: 66%   Direction: 110°ESE
Pressure: 29.82"   Gusts: NA
Location:  39.96°N, 82.8°W
Report Text: KCMH 230251Z 11007KT 10SM SCT095 OVC150 08/02 A2982 RMK AO2 SLP103 T00780017 56010
Loading
Personal Weather Stations






























Interactive Weather Map New forecast layout! Learn more

10-Day Weather Forecast

Advertisements
Track Severe Weather on mobile